Time;durP1;ratioP1;P1;durP2;ratioP2;P2;SDS_P1;SDS_P2;PMS_P1;PMS_P2;Temp;Humidity;BMP_temperature;BMP_pressure;BME280_temperature;BME280_humidity;BME280_pressure;Samples;Min_cycle;Max_cycle;Signal;HPM_P1;HPM_P2
2023/08/02 00:03:15;;;;;;;5.50;4.30;;;;;;;16.22;88.83;97653.38;225616;1283;22846;-74
2023/08/02 00:16:08;;;;;;;;;;;;;;;;;;;;;
2023/08/02 00:28:36;;;;;;;5.50;4.70;;;;;;;15.98;89.48;97695.98;225058;1262;22539;-73
2023/08/02 00:41:21;;;;;;;6.20;4.70;;;;;;;15.94;89.44;97692.14;225177;1285;22540;-74
2023/08/02 00:47:17;;;;;;;5.20;4.50;;;;;;;15.89;89.48;97690.23;225896;1279;22541;-74
2023/08/02 00:53:32;;;;;;;5.70;5.00;;;;;;;15.85;89.37;97686.46;225909;1279;22542;-74
2023/08/02 00:59:29;;;;;;;10.80;4.80;;;;;;;15.84;89.17;97689.11;226208;1278;22908;-74
2023/08/02 01:05:25;;;;;;;;;;;;;;;;;;;;;
2023/08/02 01:11:17;;;;;;;;;;;;;;;;;;;;;
2023/08/02 01:17:41;;;;;;;;;;;;;;;;;;;;;
2023/08/02 01:23:51;;;;;;;5.40;4.30;;;;;;;15.67;89.59;97710.58;225999;1279;22541;-73
2023/08/02 01:29:47;;;;;;;5.50;4.60;;;;;;;15.57;89.59;97719.80;226149;1279;22540;-74
2023/08/02 01:35:54;;;;;;;5.20;4.70;;;;;;;15.49;89.56;97723.50;226054;1280;22545;-74
2023/08/02 01:41:52;;;;;;;5.50;4.50;;;;;;;15.40;89.76;97725.20;225967;1279;22544;-73
2023/08/02 01:48:25;;;;;;;5.30;4.80;;;;;;;15.29;89.90;97733.61;226167;1279;24248;-73
2023/08/02 01:54:47;;;;;;;;;;;;;;;;;;;;;
2023/08/02 02:00:49;;;;;;;5.30;4.90;;;;;;;15.11;90.06;97739.30;226111;1279;24899;-73
2023/08/02 02:06:35;;;;;;;6.50;5.20;;;;;;;15.02;90.28;97741.36;226054;1280;22534;-73
2023/08/02 02:12:57;;;;;;;5.20;4.70;;;;;;;14.93;90.24;97751.55;226043;1280;22556;-73
2023/08/02 02:18:10;;;;;;;;;;;;;;;14.86;90.38;97748.49;226040;1279;22550;-73
2023/08/02 02:24:08;;;;;;;5.70;4.60;;;;;;;14.76;90.38;97747.13;225564;1281;24384;-73
2023/08/02 02:30:09;;;;;;;5.90;4.80;;;;;;;14.68;90.44;97750.33;225470;1283;22552;-73
2023/08/02 02:36:47;;;;;;;6.80;5.30;;;;;;;14.58;90.60;97754.70;225426;1283;22541;-73
2023/08/02 02:43:12;;;;;;;6.80;4.70;;;;;;;14.52;90.75;97771.37;225556;1282;22533;-74
2023/08/02 02:48:45;;;;;;;5.70;5.10;;;;;;;14.45;90.63;97776.61;226106;1273;22536;-73
2023/08/02 02:54:50;;;;;;;4.90;4.40;;;;;;;14.39;90.77;97781.42;226127;1279;22521;-74
2023/08/02 03:00:02;;;;;;;5.20;4.70;;;;;;;14.33;90.66;97779.59;226213;1262;22560;-73
2023/08/02 03:05:37;;;;;;;5.30;4.80;;;;;;;14.27;90.65;97785.30;226096;1278;22520;-73
2023/08/02 03:11:32;;;;;;;7.90;4.90;;;;;;;14.21;90.91;97787.43;225866;1274;25252;-74
2023/08/02 03:18:14;;;;;;;;;;;;;;;;;;;;;
2023/08/02 03:24:38;;;;;;;7.00;6.30;;;;;;;14.12;90.80;97790.27;226093;1279;22542;-73
2023/08/02 03:30:04;;;;;;;;;;;;;;;;;;;;;
2023/08/02 03:35:41;;;;;;;6.90;5.30;;;;;;;14.02;90.96;97795.58;226135;1279;22537;-74
2023/08/02 03:42:12;;;;;;;6.00;5.40;;;;;;;13.98;90.82;97804.05;226199;1280;22592;-74
2023/08/02 03:48:10;;;;;;;6.70;6.00;;;;;;;14.06;90.76;97810.08;226239;1279;23285;-74
2023/08/02 03:54:14;;;;;;;8.10;5.70;;;;;;;14.14;90.95;97803.74;226041;1280;22561;-74
2023/08/02 04:07:49;;;;;;;7.20;5.70;;;;;;;14.31;91.30;97809.99;226092;1280;22562;-73
2023/08/02 04:14:08;;;;;;;9.50;6.30;;;;;;;14.41;91.43;97808.63;226059;1280;22565;-73
2023/08/02 04:26:45;;;;;;;7.70;7.00;;;;;;;14.62;91.55;97811.05;225722;1279;22549;-73
2023/08/02 04:39:48;;;;;;;9.30;7.90;;;;;;;14.94;91.45;97807.30;226104;1279;22526;-73
2023/08/02 04:45:41;;;;;;;8.70;7.80;;;;;;;15.08;91.09;97802.02;226071;1280;22543;-74
2023/08/02 04:51:36;;;;;;;;;;;;;;;;;;;;;
2023/08/02 04:57:25;;;;;;;;;;;;;;;;;;;;;
2023/08/02 05:02:56;;;;;;;7.90;6.60;;;;;;;15.57;90.85;97809.11;226173;1278;22524;-73
2023/08/02 05:08:15;;;;;;;11.00;10.10;;;;;;;15.73;90.44;97803.02;226190;1280;22524;-73
2023/08/02 05:14:12;;;;;;;10.00;8.90;;;;;;;15.88;90.44;97802.00;226115;1279;22549;-74
2023/08/02 05:20:16;;;;;;;6.90;6.10;;;;;;;16.06;90.08;97801.05;226218;1265;22605;-74
2023/08/02 05:25:58;;;;;;;5.50;5.00;;;;;;;16.23;89.61;97808.84;226029;1279;22618;-74
2023/08/02 05:31:30;;;;;;;7.20;5.00;;;;;;;16.42;89.50;97806.94;226181;1275;22552;-74
2023/08/02 05:37:13;;;;;;;4.80;4.30;;;;;;;16.61;89.28;97798.99;226212;1279;22646;-74
2023/08/02 05:42:37;;;;;;;5.60;4.90;;;;;;;16.76;88.61;97797.64;225916;1280;22536;-74
2023/08/02 05:52:51;;;;;;;5.60;5.00;;;;;;;17.08;88.06;97805.61;225786;1274;22550;-72
2023/08/02 05:57:54;;;;;;;5.90;4.40;;;;;;;17.24;87.62;97809.02;225848;1273;22563;-74
2023/08/02 06:03:04;;;;;;;7.00;4.50;;;;;;;17.44;87.32;97815.59;225544;1273;22535;-72
2023/08/02 06:08:14;;;;;;;4.60;4.20;;;;;;;17.70;87.18;97820.28;225753;1273;26118;-72
2023/08/02 06:13:30;;;;;;;4.70;4.10;;;;;;;17.88;86.01;97818.84;225618;1260;22582;-72
2023/08/02 06:18:41;;;;;;;5.40;4.00;;;;;;;18.06;86.08;97820.82;225177;1263;22588;-72
2023/08/02 06:24:03;;;;;;;7.00;4.50;;;;;;;18.26;85.59;97826.31;225217;1264;22554;-73
2023/08/02 06:29:08;;;;;;;8.30;4.00;;;;;;;18.42;85.21;97838.36;225287;1264;22537;-72
2023/08/02 06:34:29;;;;;;;6.80;3.90;;;;;;;18.55;84.44;97844.48;225390;1257;23065;-71
2023/08/02 06:39:43;;;;;;;5.50;3.80;;;;;;;18.65;83.81;97846.67;225313;1273;23050;-72
2023/08/02 06:44:48;;;;;;;4.80;3.80;;;;;;;18.78;83.37;97860.52;225291;1257;22548;-73
2023/08/02 06:49:53;;;;;;;4.90;3.70;;;;;;;19.01;83.07;97870.91;225414;1264;22631;-71
2023/08/02 06:55:31;;;;;;;4.60;3.60;;;;;;;19.20;82.43;97863.55;225450;1260;22551;-72
2023/08/02 07:00:36;;;;;;;4.70;4.10;;;;;;;19.19;81.38;97868.11;225315;1263;22588;-73
2023/08/02 07:05:41;;;;;;;4.30;3.60;;;;;;;19.29;81.42;97864.48;225248;1264;23104;-73
2023/08/02 07:11:13;;;;;;;5.40;3.30;;;;;;;19.48;81.08;97862.31;225260;1267;23336;-72
2023/08/02 07:16:30;;;;;;;3.60;2.90;;;;;;;19.55;80.54;97860.94;225499;1260;22547;-73
2023/08/02 07:21:44;;;;;;;3.90;3.40;;;;;;;19.65;80.41;97855.19;225583;1264;23658;-72
2023/08/02 07:26:59;;;;;;;3.30;3.00;;;;;;;19.88;80.12;97860.16;225455;1264;22545;-73
2023/08/02 07:32:10;;;;;;;4.20;2.80;;;;;;;20.21;79.85;97858.21;225295;1257;22538;-73
2023/08/02 07:37:21;;;;;;;3.40;3.10;;;;;;;20.51;79.76;97852.18;225371;1256;25278;-73
2023/08/02 07:42:38;;;;;;;4.00;2.80;;;;;;;20.96;79.42;97842.19;225504;1273;22549;-73
2023/08/02 07:47:57;;;;;;;;;;;;;;;21.42;78.30;97840.44;225613;1260;22516;-71
2023/08/02 07:53:02;;;;;;;3.50;2.50;;;;;;;21.86;77.54;97834.69;225445;1263;22660;-72
2023/08/02 07:58:05;;;;;;;2.60;2.40;;;;;;;22.03;75.29;97818.40;225472;1263;25180;-72
2023/08/02 08:03:07;;;;;;;3.20;2.20;;;;;;;21.98;74.36;97812.45;225374;1272;25330;-71
2023/08/02 08:08:09;;;;;;;2.50;2.10;;;;;;;22.05;74.29;97815.83;225292;1264;22510;-72
2023/08/02 08:13:12;;;;;;;2.30;2.10;;;;;;;22.38;73.68;97823.33;225348;1273;22595;-72
2023/08/02 08:18:14;;;;;;;2.40;1.80;;;;;;;22.58;72.19;97825.16;225417;1257;22728;-72
2023/08/02 08:23:16;;;;;;;3.20;2.10;;;;;;;22.87;71.98;97828.05;225701;1256;22549;-72
2023/08/02 08:28:27;;;;;;;3.50;2.40;;;;;;;23.06;70.91;97833.06;225489;1272;22695;-72
2023/08/02 08:33:42;;;;;;;2.40;2.00;;;;;;;23.18;68.82;97840.30;225419;1257;22685;-71
2023/08/02 08:39:28;;;;;;;1.80;1.70;;;;;;;23.23;68.18;97833.67;225541;1260;22610;-72
2023/08/02 08:44:39;;;;;;;1.80;1.70;;;;;;;23.22;67.51;97836.80;225647;1272;22551;-74
2023/08/02 08:50:04;;;;;;;2.20;1.60;;;;;;;23.22;66.08;97838.09;225522;1279;22708;-72
2023/08/02 08:55:23;;;;;;;3.60;1.50;;;;;;;23.16;65.31;97837.33;225521;1272;24769;-72
2023/08/02 09:00:27;;;;;;;1.90;1.30;;;;;;;23.06;65.24;97830.69;225591;1272;25346;-73
2023/08/02 09:05:31;;;;;;;2.10;1.60;;;;;;;23.11;65.14;97818.12;225339;1262;22546;-74
2023/08/02 09:10:34;;;;;;;2.40;1.60;;;;;;;23.23;65.18;97829.84;225508;1276;22614;-73
2023/08/02 09:15:41;;;;;;;4.30;1.90;;;;;;;23.17;63.96;97832.08;225481;1276;22544;-74
2023/08/02 09:20:53;;;;;;;1.90;1.60;;;;;;;23.23;63.94;97831.83;225348;1272;23104;-73
2023/08/02 09:26:16;;;;;;;2.30;2.10;;;;;;;23.39;63.91;97832.71;225960;1272;22259;-73
2023/08/02 09:31:34;;;;;;;5.20;2.70;;;;;;;23.48;63.31;97829.77;225491;1272;23163;-72
2023/08/02 09:36:37;;;;;;;;;;;;;;;23.46;64.01;97820.05;225648;1270;22867;-74
2023/08/02 09:42:09;;;;;;;3.20;2.20;;;;;;;23.49;63.21;97827.32;225526;1256;22707;-72
2023/08/02 09:47:22;;;;;;;4.00;2.40;;;;;;;23.66;64.12;97816.45;225607;1272;22530;-73
2023/08/02 09:52:27;;;;;;;3.00;2.40;;;;;;;23.80;63.78;97815.38;225599;1268;22491;-73
2023/08/02 09:57:30;;;;;;;4.10;2.70;;;;;;;23.89;63.57;97810.16;225238;1265;25252;-74
2023/08/02 10:02:35;;;;;;;5.70;3.20;;;;;;;24.01;62.57;97800.48;225591;1268;25278;-74
2023/08/02 10:07:56;;;;;;;3.00;2.50;;;;;;;24.13;62.70;97792.10;225671;1266;22554;-74
2023/08/02 10:13:25;;;;;;;2.80;2.10;;;;;;;24.26;62.42;97790.02;225562;1268;22536;-74
2023/08/02 10:18:28;;;;;;;2.00;1.80;;;;;;;24.15;61.47;97782.05;225433;1260;22598;-73
2023/08/02 10:23:32;;;;;;;2.80;2.20;;;;;;;24.17;61.73;97775.56;225590;1268;22568;-73
2023/08/02 10:28:37;;;;;;;2.10;1.60;;;;;;;24.41;61.18;97779.03;225508;1272;22531;-74
2023/08/02 10:33:39;;;;;;;1.40;1.30;;;;;;;24.50;60.20;97778.36;225506;1273;22554;-73
2023/08/02 10:38:42;;;;;;;3.10;1.90;;;;;;;24.58;60.07;97768.34;225589;1256;25251;-73
2023/08/02 10:43:53;;;;;;;2.00;1.80;;;;;;;24.83;59.59;97762.33;225497;1277;22699;-73
2023/08/02 10:49:25;;;;;;;3.00;1.50;;;;;;;24.81;57.96;97771.41;225472;1265;232419;-72
2023/08/02 10:54:27;;;;;;;3.00;1.60;;;;;;;24.56;57.14;97771.52;225482;1269;22537;-73
2023/08/02 10:59:29;;;;;;;2.70;1.80;;;;;;;24.33;56.95;97775.36;225397;1265;22551;-73
2023/08/02 11:04:39;;;;;;;2.10;1.60;;;;;;;24.38;58.77;97760.63;225533;1260;22560;-72
2023/08/02 11:09:53;;;;;;;2.00;1.50;;;;;;;24.74;59.26;97748.55;225355;1257;25380;-71
2023/08/02 11:15:02;;;;;;;2.60;1.80;;;;;;;25.01;58.22;97746.38;225584;1272;22540;-71
2023/08/02 11:20:15;;;;;;;3.70;2.00;;;;;;;25.08;57.99;97744.80;225518;1272;22562;-73
2023/08/02 11:25:19;;;;;;;3.20;1.90;;;;;;;25.20;56.79;97749.60;225236;1260;23283;-72
2023/08/02 11:30:42;;;;;;;1.80;1.60;;;;;;;25.13;56.04;97746.30;225381;1264;23099;-72
2023/08/02 11:35:50;;;;;;;3.60;1.70;;;;;;;24.94;56.39;97737.54;225430;1270;22641;-71
2023/08/02 11:40:52;;;;;;;2.60;1.60;;;;;;;24.78;56.12;97733.52;225463;1260;22551;-72
2023/08/02 11:45:57;;;;;;;1.80;1.40;;;;;;;24.61;56.16;97725.88;225351;1264;22551;-72
2023/08/02 11:51:06;;;;;;;3.10;1.30;;;;;;;24.76;55.76;97719.05;224881;1264;22655;-74
2023/08/02 11:56:10;;;;;;;1.70;1.30;;;;;;;24.96;55.43;97719.09;224861;1276;22540;-71
2023/08/02 12:01:13;;;;;;;1.80;1.60;;;;;;;25.06;55.19;97723.63;225327;1260;22657;-73
2023/08/02 12:06:41;;;;;;;4.10;1.40;;;;;;;25.16;55.71;97714.81;225532;1276;23885;-74
2023/08/02 12:11:45;;;;;;;2.70;1.40;;;;;;;25.23;55.16;97711.69;225438;1272;22612;-73
2023/08/02 12:16:47;;;;;;;2.00;1.50;;;;;;;25.21;55.26;97707.73;225362;1270;22537;-73
2023/08/02 12:22:08;;;;;;;3.30;1.60;;;;;;;25.34;54.92;97717.40;225388;1272;22544;-74
2023/08/02 12:27:28;;;;;;;2.20;1.60;;;;;;;25.25;53.82;97712.78;225573;1272;22603;-73
2023/08/02 12:32:30;;;;;;;2.70;1.50;;;;;;;25.14;53.66;97697.16;225559;1276;22560;-74
2023/08/02 12:37:34;;;;;;;2.20;1.30;;;;;;;25.19;53.77;97700.52;225367;1272;22535;-74
2023/08/02 12:42:36;;;;;;;1.50;1.10;;;;;;;25.29;53.65;97700.31;225599;1260;22554;-74
2023/08/02 12:47:54;;;;;;;1.40;1.20;;;;;;;25.16;53.16;97700.52;225527;1261;22536;-75
2023/08/02 12:53:04;;;;;;;3.20;2.00;;;;;;;25.11;52.65;97699.63;225530;1275;22543;-74
2023/08/02 12:58:06;;;;;;;3.50;1.60;;;;;;;25.34;52.69;97701.48;225568;1262;22633;-74
2023/08/02 13:03:09;;;;;;;4.80;1.30;;;;;;;25.43;52.25;97691.38;225238;1260;22553;-75
2023/08/02 13:08:13;;;;;;;1.50;1.00;;;;;;;25.50;51.59;97675.34;225353;1258;22544;-74
2023/08/02 13:13:15;;;;;;;2.10;1.10;;;;;;;25.71;50.60;97680.61;225425;1272;22546;-75
2023/08/02 13:18:17;;;;;;;1.70;1.00;;;;;;;25.85;50.29;97681.94;225358;1272;22537;-75
2023/08/02 13:23:20;;;;;;;3.40;1.10;;;;;;;25.89;48.75;97685.00;225092;1260;22566;-77
2023/08/02 13:28:32;;;;;;;1.40;1.20;;;;;;;25.66;48.40;97671.73;225154;1260;25449;-74
2023/08/02 13:33:34;;;;;;;3.90;1.30;;;;;;;25.25;48.02;97671.64;225365;1262;26654;-74
2023/08/02 13:38:36;;;;;;;2.00;1.20;;;;;;;25.16;48.86;97655.02;225383;1279;22950;-74
2023/08/02 13:43:39;;;;;;;2.30;1.10;;;;;;;25.12;49.18;97660.35;225327;1256;25341;-74
2023/08/02 13:48:41;;;;;;;2.90;1.50;;;;;;;25.17;49.46;97657.85;225715;1260;22621;-74
2023/08/02 13:53:45;;;;;;;3.30;1.20;;;;;;;25.16;49.43;97647.60;225613;1268;24374;-75
2023/08/02 13:58:47;;;;;;;2.30;2.00;;;;;;;25.22;50.08;97643.37;225355;1272;25038;-75
2023/08/02 14:03:49;;;;;;;2.10;1.10;;;;;;;25.40;50.04;97639.27;225236;1268;22550;-76
2023/08/02 14:08:52;;;;;;;1.40;1.30;;;;;;;25.44;49.36;97635.16;225184;1279;22541;-74
2023/08/02 14:13:54;;;;;;;2.00;1.40;;;;;;;25.15;49.02;97636.81;225085;1274;25317;-74
2023/08/02 14:18:56;;;;;;;1.50;1.10;;;;;;;25.13;49.60;97637.44;225597;1272;22621;-74
2023/08/02 14:23:58;;;;;;;1.50;1.30;;;;;;;25.38;49.72;97634.30;225613;1275;22605;-74
2023/08/02 14:29:13;;;;;;;4.10;1.20;;;;;;;25.55;49.72;97631.88;225965;1279;22657;-75
2023/08/02 14:34:23;;;;;;;2.60;1.20;;;;;;;25.64;49.53;97620.23;226106;1275;22546;-75
2023/08/02 14:39:26;;;;;;;1.80;1.20;;;;;;;25.77;49.44;97626.01;225990;1275;22560;-75
2023/08/02 14:44:28;;;;;;;1.70;1.10;;;;;;;25.67;49.33;97617.73;226032;1272;22561;-75
2023/08/02 14:49:30;;;;;;;2.20;1.40;;;;;;;25.69;49.30;97611.61;226121;1275;22536;-75
2023/08/02 14:54:53;;;;;;;3.90;1.80;;;;;;;25.61;48.30;97604.61;226120;1277;22647;-74
2023/08/02 15:00:05;;;;;;;2.30;1.50;;;;;;;25.45;49.22;97603.91;226090;1275;22590;-75
2023/08/02 15:05:07;;;;;;;2.40;1.20;;;;;;;25.40;49.11;97601.19;226101;1276;22587;-75
2023/08/02 15:10:13;;;;;;;1.90;1.10;;;;;;;25.36;48.97;97589.16;226096;1275;22544;-75
2023/08/02 15:15:16;;;;;;;1.30;1.20;;;;;;;25.27;48.85;97582.95;225884;1279;22580;-74
2023/08/02 15:20:18;;;;;;;3.50;1.30;;;;;;;25.13;49.28;97577.60;226094;1275;22557;-74
2023/08/02 15:25:20;;;;;;;1.70;1.40;;;;;;;25.10;49.61;97567.50;225957;1278;22561;-75
2023/08/02 15:30:23;;;;;;;2.20;1.30;;;;;;;25.04;49.77;97557.31;226042;1279;22536;-75
2023/08/02 15:35:25;;;;;;;2.10;1.40;;;;;;;24.91;50.09;97552.05;226053;1274;24288;-76
2023/08/02 15:40:27;;;;;;;2.40;1.50;;;;;;;24.81;50.56;97544.73;225991;1276;24225;-75
2023/08/02 15:45:29;;;;;;;4.40;2.00;;;;;;;24.85;51.00;97535.57;226128;1272;25059;-74
2023/08/02 15:50:43;;;;;;;1.80;1.40;;;;;;;24.99;51.08;97532.52;226106;1277;22550;-75
2023/08/02 15:55:57;;;;;;;3.30;1.60;;;;;;;25.14;51.37;97525.06;226024;1279;22849;-75
2023/08/02 16:01:10;;;;;;;3.30;1.60;;;;;;;25.19;51.29;97518.35;226120;1277;27111;-75
2023/08/02 16:06:12;;;;;;;4.20;1.60;;;;;;;25.24;51.50;97512.08;226114;1276;22533;-74
2023/08/02 16:11:18;;;;;;;1.90;1.40;;;;;;;25.28;51.56;97507.10;226089;1278;22524;-74
2023/08/02 16:16:41;;;;;;;2.20;1.50;;;;;;;25.21;50.83;97510.05;226136;1269;22533;-75
2023/08/02 16:21:47;;;;;;;3.70;1.60;;;;;;;24.99;50.72;97505.86;226025;1277;22569;-74
2023/08/02 16:27:10;;;;;;;2.40;2.20;;;;;;;24.78;51.28;97500.10;225948;1279;22532;-75
2023/08/02 16:32:12;;;;;;;2.50;1.80;;;;;;;24.68;51.35;97489.02;226054;1276;22543;-75
2023/08/02 16:37:15;;;;;;;3.10;1.90;;;;;;;24.60;51.97;97494.37;226146;1272;22544;-75
2023/08/02 16:42:18;;;;;;;2.00;1.80;;;;;;;24.55;52.39;97492.52;226129;1279;23347;-75
2023/08/02 16:47:21;;;;;;;3.60;1.80;;;;;;;24.51;52.22;97493.55;225981;1278;22536;-75
2023/08/02 16:52:23;;;;;;;2.40;1.70;;;;;;;24.40;52.36;97488.40;226055;1276;25313;-74
2023/08/02 16:57:26;;;;;;;2.50;1.80;;;;;;;24.25;52.47;97484.27;226204;1275;22567;-75
2023/08/02 17:02:28;;;;;;;2.70;1.90;;;;;;;24.06;52.90;97476.25;225847;1279;22556;-75
2023/08/02 17:07:30;;;;;;;1.80;1.70;;;;;;;23.88;53.39;97468.53;226123;1275;24221;-75
2023/08/02 17:12:36;;;;;;;5.20;4.20;;;;;;;23.75;53.95;97451.73;226009;1277;22536;-74
2023/08/02 17:17:40;;;;;;;2.50;2.00;;;;;;;23.68;54.50;97441.40;226043;1280;25588;-75
2023/08/02 17:22:42;;;;;;;2.30;1.80;;;;;;;23.57;54.64;97430.69;226014;1279;25328;-73
2023/08/02 17:27:45;;;;;;;3.90;1.70;;;;;;;23.43;54.76;97429.78;225897;1275;22644;-74
2023/08/02 17:32:48;;;;;;;2.40;1.80;;;;;;;23.29;55.15;97424.14;226055;1278;22544;-75
2023/08/02 17:37:53;;;;;;;2.10;1.90;;;;;;;23.19;55.68;97421.69;226195;1277;22540;-75
2023/08/02 17:42:55;;;;;;;2.20;2.00;;;;;;;23.09;55.97;97421.85;226116;1279;22602;-74
2023/08/02 17:47:57;;;;;;;2.50;1.70;;;;;;;22.98;56.15;97427.32;226027;1278;24347;-75
2023/08/02 17:52:59;;;;;;;3.10;2.00;;;;;;;22.91;56.45;97426.13;226102;1276;22625;-74
2023/08/02 17:58:01;;;;;;;3.20;2.00;;;;;;;22.84;56.53;97417.73;226118;1278;22556;-74
2023/08/02 18:03:04;;;;;;;2.90;1.70;;;;;;;22.79;56.87;97413.59;226045;1277;22537;-74
2023/08/02 18:08:27;;;;;;;1.90;1.60;;;;;;;22.72;57.02;97408.91;225985;1278;22536;-74
2023/08/02 18:13:30;;;;;;;2.00;1.80;;;;;;;22.60;57.34;97393.69;226157;1275;25249;-73
2023/08/02 18:18:34;;;;;;;1.80;1.60;;;;;;;22.46;57.59;97396.00;226024;1275;24222;-74
2023/08/02 18:23:36;;;;;;;2.90;1.90;;;;;;;22.34;57.83;97402.00;226002;1275;22540;-74
2023/08/02 18:28:39;;;;;;;1.90;1.70;;;;;;;22.24;58.24;97404.02;226031;1275;22542;-75
2023/08/02 18:33:45;;;;;;;3.50;1.60;;;;;;;22.12;58.54;97403.04;226125;1280;25281;-74
2023/08/02 18:38:47;;;;;;;2.90;1.80;;;;;;;22.00;58.90;97399.20;226134;1275;22536;-74
2023/08/02 18:43:51;;;;;;;1.80;1.70;;;;;;;21.89;59.20;97397.75;225995;1275;25272;-74
2023/08/02 18:48:56;;;;;;;2.50;1.90;;;;;;;21.78;59.45;97396.60;226044;1278;22559;-74
2023/08/02 18:53:59;;;;;;;3.10;2.20;;;;;;;21.67;59.67;97401.40;226117;1278;22539;-74
2023/08/02 18:59:03;;;;;;;1.90;1.80;;;;;;;21.58;59.96;97408.64;226066;1278;22551;-75
2023/08/02 19:04:09;;;;;;;3.20;1.90;;;;;;;21.50;60.21;97404.41;226051;1277;22539;-75
2023/08/02 19:09:11;;;;;;;3.60;1.80;;;;;;;21.42;60.35;97401.09;226125;1279;22543;-75
2023/08/02 19:14:36;;;;;;;3.80;2.20;;;;;;;21.37;60.70;97389.94;226048;1280;22522;-74
2023/08/02 19:19:43;;;;;;;3.90;2.70;;;;;;;21.34;60.91;97389.13;226012;1277;22645;-73
2023/08/02 19:25:14;;;;;;;4.20;2.40;;;;;;;21.29;61.09;97396.98;226045;1280;22542;-74
2023/08/02 19:30:26;;;;;;;4.80;2.20;;;;;;;21.27;61.27;97398.08;226138;1278;22544;-74
2023/08/02 19:35:28;;;;;;;5.40;1.90;;;;;;;21.20;61.44;97397.59;226015;1279;22555;-75
2023/08/02 19:40:30;;;;;;;3.40;2.00;;;;;;;21.13;61.73;97402.23;226030;1275;22568;-74
2023/08/02 19:45:32;;;;;;;4.10;2.20;;;;;;;21.04;61.95;97405.23;226049;1279;22540;-74
2023/08/02 19:50:35;;;;;;;2.50;2.00;;;;;;;20.97;62.34;97405.39;225990;1278;22544;-74
2023/08/02 19:55:40;;;;;;;3.80;2.30;;;;;;;20.90;62.47;97398.73;226052;1275;22537;-74
2023/08/02 20:00:52;;;;;;;2.10;1.90;;;;;;;20.84;62.70;97397.72;226119;1272;22533;-74
2023/08/02 20:06:00;;;;;;;2.90;2.10;;;;;;;20.79;62.96;97383.98;226172;1278;22541;-75
2023/08/02 20:11:07;;;;;;;5.10;2.20;;;;;;;20.75;63.00;97382.92;226137;1276;22551;-74
2023/08/02 20:16:15;;;;;;;3.60;1.80;;;;;;;20.71;63.18;97376.99;226161;1279;23111;-74
2023/08/02 20:21:19;;;;;;;2.30;1.90;;;;;;;20.65;63.30;97380.77;226137;1278;22547;-75
2023/08/02 20:26:26;;;;;;;2.80;1.80;;;;;;;20.60;63.54;97377.58;226085;1278;22539;-74
2023/08/02 20:31:35;;;;;;;4.30;1.70;;;;;;;20.55;63.81;97376.22;226168;1280;22612;-74
2023/08/02 20:36:39;;;;;;;2.60;1.90;;;;;;;20.51;63.83;97372.45;225801;1280;22551;-75
2023/08/02 20:41:41;;;;;;;2.20;1.50;;;;;;;20.47;64.09;97380.34;226131;1280;22544;-74
2023/08/02 20:46:44;;;;;;;3.50;2.00;;;;;;;20.41;64.22;97374.83;226044;1279;22541;-74
2023/08/02 20:51:47;;;;;;;2.90;1.80;;;;;;;20.33;64.46;97374.98;226132;1279;25346;-73
2023/08/02 20:57:00;;;;;;;2.00;1.50;;;;;;;20.26;64.59;97375.98;226176;1280;22657;-74
2023/08/02 21:02:25;;;;;;;2.10;1.70;;;;;;;20.17;64.74;97377.90;226132;1280;22580;-73
2023/08/02 21:07:27;;;;;;;2.10;1.80;;;;;;;20.08;65.08;97385.86;226098;1275;22529;-74
2023/08/02 21:12:35;;;;;;;3.20;2.10;;;;;;;20.01;65.26;97387.12;226035;1279;22555;-74
2023/08/02 21:17:37;;;;;;;2.90;1.90;;;;;;;19.98;65.57;97390.80;226207;1278;22536;-74
2023/08/02 21:22:42;;;;;;;2.70;1.70;;;;;;;19.93;65.74;97386.33;226002;1278;22536;-74
2023/08/02 21:27:48;;;;;;;3.00;2.00;;;;;;;19.87;65.98;97378.80;226137;1279;22584;-74
2023/08/02 21:32:53;;;;;;;6.20;2.10;;;;;;;19.79;66.15;97384.09;226140;1278;22547;-74
2023/08/02 21:38:51;;;;;;;5.70;1.90;;;;;;;19.70;66.47;97384.45;226148;1277;22665;-74
2023/08/02 21:43:58;;;;;;;5.50;1.80;;;;;;;19.62;66.66;97381.23;225990;1279;22571;-74
2023/08/02 21:49:04;;;;;;;3.30;2.10;;;;;;;19.56;67.04;97385.42;226082;1279;22588;-74
2023/08/02 21:54:11;;;;;;;2.90;1.70;;;;;;;19.53;67.15;97390.00;226142;1278;22545;-74
2023/08/02 21:59:14;;;;;;;4.40;1.70;;;;;;;19.52;67.45;97387.00;226092;1275;22548;-74
2023/08/02 22:04:27;;;;;;;5.30;1.80;;;;;;;19.55;67.64;97390.73;225903;1279;22533;-74
2023/08/02 22:09:30;;;;;;;3.20;2.20;;;;;;;19.59;67.78;97394.23;225820;1279;22525;-74
2023/08/02 22:14:34;;;;;;;1.80;1.40;;;;;;;19.63;67.88;97388.73;226032;1280;22933;-74
2023/08/02 22:19:40;;;;;;;2.00;1.80;;;;;;;19.66;68.06;97385.71;226156;1279;22537;-74
2023/08/02 22:24:45;;;;;;;5.20;1.80;;;;;;;19.68;68.14;97382.11;226174;1275;22567;-74
2023/08/02 22:29:50;;;;;;;3.00;1.70;;;;;;;19.70;68.18;97374.59;226141;1279;22540;-74
2023/08/02 22:35:00;;;;;;;2.70;1.60;;;;;;;19.72;68.27;97367.94;225995;1279;25317;-74
2023/08/02 22:40:06;;;;;;;5.50;1.70;;;;;;;19.75;68.31;97370.24;226136;1275;22559;-73
2023/08/02 22:45:09;;;;;;;2.30;1.60;;;;;;;19.78;68.35;97376.02;226161;1278;22533;-74
2023/08/02 22:50:12;;;;;;;2.10;1.50;;;;;;;19.79;68.43;97383.46;225853;1278;254764;-74
2023/08/02 22:55:17;;;;;;;3.00;1.80;;;;;;;19.78;68.36;97382.83;225994;1280;23322;-74
2023/08/02 23:00:24;;;;;;;2.00;1.40;;;;;;;19.75;68.47;97380.50;226159;1280;23061;-74
2023/08/02 23:05:40;;;;;;;4.80;1.80;;;;;;;19.70;68.62;97367.73;226192;1279;22582;-74
2023/08/02 23:10:44;;;;;;;4.00;1.70;;;;;;;19.65;68.79;97363.20;226185;1279;25236;-73
2023/08/02 23:15:56;;;;;;;3.00;1.90;;;;;;;19.61;68.97;97366.39;226194;1279;25268;-74
2023/08/02 23:21:01;;;;;;;3.40;1.80;;;;;;;19.55;69.13;97370.91;226135;1278;22605;-74
2023/08/02 23:26:37;;;;;;;3.30;1.60;;;;;;;19.49;69.30;97358.28;226183;1272;22551;-74
2023/08/02 23:31:55;;;;;;;2.90;1.60;;;;;;;19.45;69.45;97348.27;226217;1280;22540;-74
2023/08/02 23:37:30;;;;;;;3.40;1.50;;;;;;;19.46;69.59;97345.70;226049;1279;22651;-74
2023/08/02 23:42:44;;;;;;;3.20;1.60;;;;;;;19.52;69.85;97351.05;226134;1279;22575;-73
2023/08/02 23:47:46;;;;;;;2.30;1.40;;;;;;;19.65;70.01;97359.02;225979;1280;22629;-74
2023/08/02 23:52:48;;;;;;;2.40;1.20;;;;;;;19.75;69.94;97361.08;226068;1279;22540;-73
2023/08/02 23:57:58;;;;;;;1.90;1.50;;;;;;;19.80;70.01;97373.90;226130;1279;22527;-73
